sensor_id;sensor_type;location;lat;lon;timestamp;pressure;altitude;pressure_sealevel;temperature;humidity
28606;BME280;46498;49.968;7.754;2023-12-04T00:04:59;-18135.00;;;-4.46;100.00
28606;BME280;46498;49.968;7.754;2023-12-04T00:10:00;-18134.00;;;-4.49;100.00
28606;BME280;46498;49.968;7.754;2023-12-04T00:15:01;-18128.00;;;-4.66;100.00
28606;BME280;46498;49.968;7.754;2023-12-04T00:20:02;-18131.00;;;-4.57;100.00
28606;BME280;46498;49.968;7.754;2023-12-04T00:25:05;-18128.00;;;-4.69;100.00
28606;BME280;46498;49.968;7.754;2023-12-04T00:30:07;-18127.00;;;-4.70;100.00
28606;BME280;46498;49.968;7.754;2023-12-04T00:35:08;-18127.00;;;-4.71;100.00
28606;BME280;46498;49.968;7.754;2023-12-04T00:40:10;-18125.00;;;-4.77;100.00
28606;BME280;46498;49.968;7.754;2023-12-04T00:45:11;-18121.00;;;-4.89;100.00
28606;BME280;46498;49.968;7.754;2023-12-04T00:50:11;-18120.00;;;-4.92;100.00
28606;BME280;46498;49.968;7.754;2023-12-04T00:55:13;-18120.00;;;-4.92;100.00
28606;BME280;46498;49.968;7.754;2023-12-04T01:00:14;-18120.00;;;-4.94;100.00
28606;BME280;46498;49.968;7.754;2023-12-04T01:05:15;-18120.00;;;-4.94;100.00
28606;BME280;46498;49.968;7.754;2023-12-04T01:10:17;-18125.00;;;-4.76;100.00
28606;BME280;46498;49.968;7.754;2023-12-04T01:15:18;-18122.00;;;-4.86;100.00
28606;BME280;46498;49.968;7.754;2023-12-04T01:20:18;-18122.00;;;-4.86;100.00
28606;BME280;46498;49.968;7.754;2023-12-04T01:25:19;-18120.00;;;-4.92;100.00
28606;BME280;46498;49.968;7.754;2023-12-04T01:30:21;-18121.00;;;-4.89;100.00
28606;BME280;46498;49.968;7.754;2023-12-04T01:35:21;-18123.00;;;-4.82;100.00
28606;BME280;46498;49.968;7.754;2023-12-04T01:40:22;-18122.00;;;-4.85;100.00
28606;BME280;46498;49.968;7.754;2023-12-04T01:45:23;-18123.00;;;-4.84;100.00
28606;BME280;46498;49.968;7.754;2023-12-04T01:50:24;-18124.00;;;-4.79;100.00
28606;BME280;46498;49.968;7.754;2023-12-04T01:55:26;-18125.00;;;-4.77;100.00
28606;BME280;46498;49.968;7.754;2023-12-04T02:00:27;-18124.00;;;-4.80;100.00
28606;BME280;46498;49.968;7.754;2023-12-04T02:05:29;-18122.00;;;-4.86;100.00
28606;BME280;46498;49.968;7.754;2023-12-04T02:10:29;-18117.00;;;-5.02;100.00
28606;BME280;46498;49.968;7.754;2023-12-04T02:15:30;-18117.00;;;-5.03;100.00
28606;BME280;46498;49.968;7.754;2023-12-04T02:20:32;-18119.00;;;-4.95;100.00
28606;BME280;46498;49.968;7.754;2023-12-04T02:25:35;-18119.00;;;-4.96;100.00
28606;BME280;46498;49.968;7.754;2023-12-04T02:30:40;-18118.00;;;-5.00;100.00
28606;BME280;46498;49.968;7.754;2023-12-04T02:35:43;-18115.00;;;-5.09;100.00
28606;BME280;46498;49.968;7.754;2023-12-04T02:40:45;-18112.00;;;-5.16;100.00
28606;BME280;46498;49.968;7.754;2023-12-04T02:45:46;-18112.00;;;-5.18;100.00
28606;BME280;46498;49.968;7.754;2023-12-04T02:50:47;-18110.00;;;-5.23;100.00
28606;BME280;46498;49.968;7.754;2023-12-04T02:55:48;-18112.00;;;-5.18;100.00
28606;BME280;46498;49.968;7.754;2023-12-04T03:00:48;-18112.00;;;-5.18;100.00
28606;BME280;46498;49.968;7.754;2023-12-04T03:05:49;-18108.00;;;-5.31;100.00
28606;BME280;46498;49.968;7.754;2023-12-04T03:10:50;-18109.00;;;-5.26;100.00
28606;BME280;46498;49.968;7.754;2023-12-04T03:15:51;-18112.00;;;-5.18;100.00
28606;BME280;46498;49.968;7.754;2023-12-04T03:20:52;-18114.00;;;-5.11;100.00
28606;BME280;46498;49.968;7.754;2023-12-04T03:25:53;-18110.00;;;-5.24;100.00
28606;BME280;46498;49.968;7.754;2023-12-04T03:30:54;-18114.00;;;-5.13;100.00
28606;BME280;46498;49.968;7.754;2023-12-04T03:35:55;-18109.00;;;-5.27;100.00
28606;BME280;46498;49.968;7.754;2023-12-04T03:40:56;-18109.00;;;-5.27;100.00
28606;BME280;46498;49.968;7.754;2023-12-04T03:45:57;-18109.00;;;-5.28;100.00
28606;BME280;46498;49.968;7.754;2023-12-04T03:50:58;-18111.00;;;-5.19;100.00
28606;BME280;46498;49.968;7.754;2023-12-04T03:56:00;-18111.00;;;-5.19;100.00
28606;BME280;46498;49.968;7.754;2023-12-04T04:01:01;-18114.00;;;-5.12;100.00
28606;BME280;46498;49.968;7.754;2023-12-04T04:06:02;-18112.00;;;-5.16;100.00
28606;BME280;46498;49.968;7.754;2023-12-04T04:11:03;-18116.00;;;-5.05;100.00
28606;BME280;46498;49.968;7.754;2023-12-04T04:16:05;-18119.00;;;-4.97;100.00
28606;BME280;46498;49.968;7.754;2023-12-04T04:21:07;-18115.00;;;-5.09;100.00
28606;BME280;46498;49.968;7.754;2023-12-04T04:26:08;-18115.00;;;-5.07;100.00
28606;BME280;46498;49.968;7.754;2023-12-04T04:31:08;-18112.00;;;-5.18;100.00
28606;BME280;46498;49.968;7.754;2023-12-04T04:36:10;-18117.00;;;-5.01;100.00
28606;BME280;46498;49.968;7.754;2023-12-04T04:41:14;-18117.00;;;-5.02;100.00
28606;BME280;46498;49.968;7.754;2023-12-04T04:46:18;-18115.00;;;-5.09;100.00
28606;BME280;46498;49.968;7.754;2023-12-04T04:51:19;-18115.00;;;-5.08;100.00
28606;BME280;46498;49.968;7.754;2023-12-04T04:56:20;-18113.00;;;-5.13;100.00
28606;BME280;46498;49.968;7.754;2023-12-04T05:01:21;-18110.00;;;-5.23;100.00
28606;BME280;46498;49.968;7.754;2023-12-04T05:06:21;-18113.00;;;-5.16;100.00
28606;BME280;46498;49.968;7.754;2023-12-04T05:11:23;-18109.00;;;-5.26;100.00
28606;BME280;46498;49.968;7.754;2023-12-04T05:16:24;-18110.00;;;-5.25;100.00
28606;BME280;46498;49.968;7.754;2023-12-04T05:21:25;-18111.00;;;-5.21;100.00
28606;BME280;46498;49.968;7.754;2023-12-04T05:26:26;-18115.00;;;-5.08;100.00
28606;BME280;46498;49.968;7.754;2023-12-04T05:31:27;-18119.00;;;-4.96;100.00
28606;BME280;46498;49.968;7.754;2023-12-04T05:36:27;-18123.00;;;-4.84;100.00
28606;BME280;46498;49.968;7.754;2023-12-04T05:41:28;-18122.00;;;-4.87;100.00
28606;BME280;46498;49.968;7.754;2023-12-04T05:46:29;-18123.00;;;-4.82;100.00
28606;BME280;46498;49.968;7.754;2023-12-04T05:51:30;-18117.00;;;-5.01;100.00
28606;BME280;46498;49.968;7.754;2023-12-04T05:56:35;-18111.00;;;-5.22;100.00
28606;BME280;46498;49.968;7.754;2023-12-04T06:01:36;-18114.00;;;-5.11;100.00
28606;BME280;46498;49.968;7.754;2023-12-04T06:06:37;-18111.00;;;-5.20;100.00
28606;BME280;46498;49.968;7.754;2023-12-04T06:11:37;-18108.00;;;-5.32;100.00
28606;BME280;46498;49.968;7.754;2023-12-04T06:16:38;-18108.00;;;-5.30;100.00
28606;BME280;46498;49.968;7.754;2023-12-04T06:21:39;-18104.00;;;-5.42;100.00
28606;BME280;46498;49.968;7.754;2023-12-04T06:26:41;-18107.00;;;-5.34;100.00
28606;BME280;46498;49.968;7.754;2023-12-04T06:31:44;-18109.00;;;-5.26;100.00
28606;BME280;46498;49.968;7.754;2023-12-04T06:36:46;-18110.00;;;-5.25;100.00
28606;BME280;46498;49.968;7.754;2023-12-04T06:41:47;-18114.00;;;-5.10;100.00
28606;BME280;46498;49.968;7.754;2023-12-04T06:46:49;-18111.00;;;-5.19;100.00
28606;BME280;46498;49.968;7.754;2023-12-04T06:51:52;-18113.00;;;-5.13;100.00
28606;BME280;46498;49.968;7.754;2023-12-04T06:56:53;-18106.00;;;-5.36;100.00
28606;BME280;46498;49.968;7.754;2023-12-04T07:01:54;-18107.00;;;-5.35;100.00
28606;BME280;46498;49.968;7.754;2023-12-04T07:06:55;-18105.00;;;-5.39;100.00
28606;BME280;46498;49.968;7.754;2023-12-04T07:11:56;-18105.00;;;-5.38;100.00
28606;BME280;46498;49.968;7.754;2023-12-04T07:16:57;-18105.00;;;-5.39;100.00
28606;BME280;46498;49.968;7.754;2023-12-04T07:21:58;-18107.00;;;-5.35;100.00
28606;BME280;46498;49.968;7.754;2023-12-04T07:26:59;-18105.00;;;-5.41;100.00
28606;BME280;46498;49.968;7.754;2023-12-04T07:32:00;-18106.00;;;-5.36;100.00
28606;BME280;46498;49.968;7.754;2023-12-04T07:37:02;-18107.00;;;-5.35;100.00
28606;BME280;46498;49.968;7.754;2023-12-04T07:42:04;-18109.00;;;-5.28;100.00
28606;BME280;46498;49.968;7.754;2023-12-04T07:47:13;-18110.00;;;-5.24;100.00
28606;BME280;46498;49.968;7.754;2023-12-04T07:52:16;-18112.00;;;-5.16;100.00
28606;BME280;46498;49.968;7.754;2023-12-04T07:57:18;-18112.00;;;-5.19;100.00
28606;BME280;46498;49.968;7.754;2023-12-04T08:02:19;-18115.00;;;-5.08;100.00
28606;BME280;46498;49.968;7.754;2023-12-04T08:07:20;-18114.00;;;-5.11;100.00
28606;BME280;46498;49.968;7.754;2023-12-04T08:12:21;-18118.00;;;-4.99;100.00
28606;BME280;46498;49.968;7.754;2023-12-04T08:17:22;-18118.00;;;-4.99;100.00
28606;BME280;46498;49.968;7.754;2023-12-04T08:22:23;-18118.00;;;-4.99;100.00
28606;BME280;46498;49.968;7.754;2023-12-04T08:27:24;-18119.00;;;-4.97;100.00
28606;BME280;46498;49.968;7.754;2023-12-04T08:32:25;-18123.00;;;-4.83;100.00
28606;BME280;46498;49.968;7.754;2023-12-04T08:37:28;-18122.00;;;-4.87;100.00
28606;BME280;46498;49.968;7.754;2023-12-04T08:42:29;-18123.00;;;-4.83;100.00
28606;BME280;46498;49.968;7.754;2023-12-04T08:47:31;-18125.00;;;-4.77;100.00
28606;BME280;46498;49.968;7.754;2023-12-04T08:52:32;-18120.00;;;-4.94;100.00
28606;BME280;46498;49.968;7.754;2023-12-04T08:57:33;-18121.00;;;-4.90;100.00
28606;BME280;46498;49.968;7.754;2023-12-04T09:02:35;-18121.00;;;-4.89;100.00
28606;BME280;46498;49.968;7.754;2023-12-04T09:07:44;-18120.00;;;-4.92;100.00
28606;BME280;46498;49.968;7.754;2023-12-04T09:12:48;-18123.00;;;-4.82;100.00
28606;BME280;46498;49.968;7.754;2023-12-04T09:17:48;-18121.00;;;-4.89;100.00
28606;BME280;46498;49.968;7.754;2023-12-04T09:22:49;-18125.00;;;-4.76;100.00
28606;BME280;46498;49.968;7.754;2023-12-04T09:27:58;-18120.00;;;-4.93;100.00
28606;BME280;46498;49.968;7.754;2023-12-04T09:32:59;-18127.00;;;-4.71;100.00
28606;BME280;46498;49.968;7.754;2023-12-04T09:38:00;-18124.00;;;-4.79;100.00
28606;BME280;46498;49.968;7.754;2023-12-04T09:43:02;-18124.00;;;-4.79;100.00
28606;BME280;46498;49.968;7.754;2023-12-04T09:48:04;-18130.00;;;-4.61;100.00
28606;BME280;46498;49.968;7.754;2023-12-04T09:53:10;-18126.00;;;-4.73;100.00
28606;BME280;46498;49.968;7.754;2023-12-04T09:58:14;-18131.00;;;-4.57;100.00
28606;BME280;46498;49.968;7.754;2023-12-04T10:03:15;-18132.00;;;-4.55;100.00
28606;BME280;46498;49.968;7.754;2023-12-04T10:08:16;-18128.00;;;-4.68;100.00
28606;BME280;46498;49.968;7.754;2023-12-04T10:13:18;-18132.00;;;-4.54;100.00
28606;BME280;46498;49.968;7.754;2023-12-04T10:21:37;-18127.00;;;-4.72;100.00
28606;BME280;46498;49.968;7.754;2023-12-04T10:26:51;-18126.00;;;-4.74;100.00
28606;BME280;46498;49.968;7.754;2023-12-04T10:31:52;-18127.00;;;-4.70;100.00
28606;BME280;46498;49.968;7.754;2023-12-04T10:36:56;-18127.00;;;-4.70;100.00
28606;BME280;46498;49.968;7.754;2023-12-04T10:42:00;-18128.00;;;-4.68;100.00
28606;BME280;46498;49.968;7.754;2023-12-04T10:47:02;-18128.00;;;-4.66;100.00
28606;BME280;46498;49.968;7.754;2023-12-04T10:52:05;-18130.00;;;-4.63;100.00
28606;BME280;46498;49.968;7.754;2023-12-04T10:57:07;-18126.00;;;-4.74;100.00
28606;BME280;46498;49.968;7.754;2023-12-04T11:02:11;-18124.00;;;-4.79;100.00
28606;BME280;46498;49.968;7.754;2023-12-04T11:07:19;-18128.00;;;-4.69;100.00
28606;BME280;46498;49.968;7.754;2023-12-04T11:12:25;-18127.00;;;-4.70;100.00
28606;BME280;46498;49.968;7.754;2023-12-04T11:17:28;-18127.00;;;-4.71;100.00
28606;BME280;46498;49.968;7.754;2023-12-04T11:22:31;-18131.00;;;-4.59;100.00
28606;BME280;46498;49.968;7.754;2023-12-04T11:27:33;-18128.00;;;-4.69;100.00
28606;BME280;46498;49.968;7.754;2023-12-04T11:32:45;-18129.00;;;-4.66;100.00
28606;BME280;46498;49.968;7.754;2023-12-04T11:37:47;-18123.00;;;-4.83;100.00
28606;BME280;46498;49.968;7.754;2023-12-04T11:42:48;-18124.00;;;-4.80;100.00
28606;BME280;46498;49.968;7.754;2023-12-04T11:47:55;-18123.00;;;-4.83;100.00
28606;BME280;46498;49.968;7.754;2023-12-04T11:52:57;-18125.00;;;-4.76;100.00
28606;BME280;46498;49.968;7.754;2023-12-04T11:57:58;-18122.00;;;-4.87;100.00
28606;BME280;46498;49.968;7.754;2023-12-04T12:03:05;-18121.00;;;-4.90;100.00
28606;BME280;46498;49.968;7.754;2023-12-04T12:08:24;-18123.00;;;-4.82;100.00
28606;BME280;46498;49.968;7.754;2023-12-04T12:13:25;-18125.00;;;-4.77;100.00
28606;BME280;46498;49.968;7.754;2023-12-04T12:18:27;-18125.00;;;-4.76;100.00
28606;BME280;46498;49.968;7.754;2023-12-04T12:23:28;-18124.00;;;-4.80;100.00
28606;BME280;46498;49.968;7.754;2023-12-04T12:28:30;-18130.00;;;-4.61;100.00
28606;BME280;46498;49.968;7.754;2023-12-04T12:33:31;-18131.00;;;-4.57;100.00
28606;BME280;46498;49.968;7.754;2023-12-04T12:38:32;-18124.00;;;-4.79;100.00
28606;BME280;46498;49.968;7.754;2023-12-04T12:43:37;-18129.00;;;-4.64;100.00
28606;BME280;46498;49.968;7.754;2023-12-04T12:48:38;-18130.00;;;-4.63;100.00
28606;BME280;46498;49.968;7.754;2023-12-04T12:53:39;-18128.00;;;-4.67;100.00
28606;BME280;46498;49.968;7.754;2023-12-04T12:58:41;-18128.00;;;-4.68;100.00
28606;BME280;46498;49.968;7.754;2023-12-04T13:03:45;-18128.00;;;-4.69;100.00
28606;BME280;46498;49.968;7.754;2023-12-04T13:08:47;-18124.00;;;-4.80;100.00
28606;BME280;46498;49.968;7.754;2023-12-04T13:13:48;-18125.00;;;-4.77;100.00
28606;BME280;46498;49.968;7.754;2023-12-04T13:18:48;-18130.00;;;-4.62;100.00
28606;BME280;46498;49.968;7.754;2023-12-04T13:23:49;-18129.00;;;-4.65;100.00
28606;BME280;46498;49.968;7.754;2023-12-04T13:28:50;-18127.00;;;-4.71;100.00
28606;BME280;46498;49.968;7.754;2023-12-04T13:33:51;-18127.00;;;-4.71;100.00
28606;BME280;46498;49.968;7.754;2023-12-04T13:38:52;-18129.00;;;-4.65;100.00
28606;BME280;46498;49.968;7.754;2023-12-04T13:43:54;-18126.00;;;-4.75;100.00
28606;BME280;46498;49.968;7.754;2023-12-04T13:48:56;-18125.00;;;-4.76;100.00
28606;BME280;46498;49.968;7.754;2023-12-04T13:53:57;-18125.00;;;-4.78;100.00
28606;BME280;46498;49.968;7.754;2023-12-04T13:59:09;-18133.00;;;-4.52;100.00
28606;BME280;46498;49.968;7.754;2023-12-04T14:04:19;-18132.00;;;-4.56;100.00
28606;BME280;46498;49.968;7.754;2023-12-04T14:09:21;-18132.00;;;-4.55;100.00
28606;BME280;46498;49.968;7.754;2023-12-04T14:14:23;-18129.00;;;-4.65;100.00
28606;BME280;46498;49.968;7.754;2023-12-04T14:19:23;-18130.00;;;-4.62;100.00
28606;BME280;46498;49.968;7.754;2023-12-04T14:24:25;-18134.00;;;-4.50;100.00
28606;BME280;46498;49.968;7.754;2023-12-04T14:29:25;-18132.00;;;-4.56;100.00
28606;BME280;46498;49.968;7.754;2023-12-04T14:34:26;-18132.00;;;-4.54;100.00
28606;BME280;46498;49.968;7.754;2023-12-04T14:39:29;-18133.00;;;-4.51;100.00
28606;BME280;46498;49.968;7.754;2023-12-04T14:44:30;-18133.00;;;-4.52;100.00
28606;BME280;46498;49.968;7.754;2023-12-04T14:49:31;-18131.00;;;-4.57;100.00
28606;BME280;46498;49.968;7.754;2023-12-04T14:54:31;-18133.00;;;-4.51;100.00
28606;BME280;46498;49.968;7.754;2023-12-04T14:59:52;-18133.00;;;-4.52;100.00
28606;BME280;46498;49.968;7.754;2023-12-04T15:07:52;-18136.00;;;-4.41;100.00
28606;BME280;46498;49.968;7.754;2023-12-04T15:19:42;-18138.00;;;-4.35;100.00
28606;BME280;46498;49.968;7.754;2023-12-04T15:25:03;-18138.00;;;-4.35;100.00
28606;BME280;46498;49.968;7.754;2023-12-04T15:30:05;-18139.00;;;-4.34;100.00
28606;BME280;46498;49.968;7.754;2023-12-04T15:35:08;-18140.00;;;-4.31;100.00
28606;BME280;46498;49.968;7.754;2023-12-04T15:40:15;-18139.00;;;-4.34;100.00
28606;BME280;46498;49.968;7.754;2023-12-04T15:45:16;-18141.00;;;-4.28;100.00
28606;BME280;46498;49.968;7.754;2023-12-04T15:50:17;-18141.00;;;-4.28;100.00
28606;BME280;46498;49.968;7.754;2023-12-04T15:55:18;-18141.00;;;-4.26;100.00
28606;BME280;46498;49.968;7.754;2023-12-04T16:00:21;-18144.00;;;-4.19;100.00
28606;BME280;46498;49.968;7.754;2023-12-04T16:05:23;-18148.00;;;-4.05;100.00
28606;BME280;46498;49.968;7.754;2023-12-04T16:10:25;-18147.00;;;-4.09;100.00
28606;BME280;46498;49.968;7.754;2023-12-04T16:15:25;-18147.00;;;-4.10;100.00
28606;BME280;46498;49.968;7.754;2023-12-04T16:20:28;-18151.00;;;-3.96;100.00
28606;BME280;46498;49.968;7.754;2023-12-04T16:25:29;-18149.00;;;-4.01;100.00
28606;BME280;46498;49.968;7.754;2023-12-04T16:30:30;-18147.00;;;-4.08;100.00
28606;BME280;46498;49.968;7.754;2023-12-04T16:35:31;-18152.00;;;-3.93;100.00
28606;BME280;46498;49.968;7.754;2023-12-04T16:40:33;-18152.00;;;-3.93;100.00
28606;BME280;46498;49.968;7.754;2023-12-04T16:45:34;-18153.00;;;-3.89;100.00
28606;BME280;46498;49.968;7.754;2023-12-04T16:50:35;-18155.00;;;-3.82;100.00
28606;BME280;46498;49.968;7.754;2023-12-04T16:55:37;-18157.00;;;-3.76;100.00
28606;BME280;46498;49.968;7.754;2023-12-04T17:00:38;-18159.00;;;-3.72;100.00
28606;BME280;46498;49.968;7.754;2023-12-04T17:05:38;-18159.00;;;-3.70;100.00
28606;BME280;46498;49.968;7.754;2023-12-04T17:10:40;-18159.00;;;-3.69;100.00
28606;BME280;46498;49.968;7.754;2023-12-04T17:15:41;-18160.00;;;-3.66;100.00
28606;BME280;46498;49.968;7.754;2023-12-04T17:20:42;-18162.00;;;-3.61;100.00
28606;BME280;46498;49.968;7.754;2023-12-04T17:25:43;-18160.00;;;-3.68;100.00
28606;BME280;46498;49.968;7.754;2023-12-04T17:30:43;-18163.00;;;-3.59;100.00
28606;BME280;46498;49.968;7.754;2023-12-04T17:35:44;-18162.00;;;-3.60;100.00
28606;BME280;46498;49.968;7.754;2023-12-04T17:40:46;-18165.00;;;-3.52;100.00
28606;BME280;46498;49.968;7.754;2023-12-04T17:45:46;-18168.00;;;-3.43;100.00
28606;BME280;46498;49.968;7.754;2023-12-04T17:50:48;-18169.00;;;-3.41;100.00
28606;BME280;46498;49.968;7.754;2023-12-04T17:55:49;-18166.00;;;-3.49;100.00
28606;BME280;46498;49.968;7.754;2023-12-04T18:00:50;-18173.00;;;-3.28;100.00
28606;BME280;46498;49.968;7.754;2023-12-04T18:05:51;-18174.00;;;-3.25;100.00
28606;BME280;46498;49.968;7.754;2023-12-04T18:10:52;-18176.00;;;-3.18;100.00
28606;BME280;46498;49.968;7.754;2023-12-04T18:15:53;-18176.00;;;-3.16;100.00
28606;BME280;46498;49.968;7.754;2023-12-04T18:20:55;-18176.00;;;-3.18;100.00
28606;BME280;46498;49.968;7.754;2023-12-04T18:25:57;-18178.00;;;-3.12;100.00
28606;BME280;46498;49.968;7.754;2023-12-04T18:30:59;-18180.00;;;-3.05;100.00
28606;BME280;46498;49.968;7.754;2023-12-04T18:36:02;-18181.00;;;-3.01;100.00
28606;BME280;46498;49.968;7.754;2023-12-04T18:41:05;-18181.00;;;-3.01;100.00
28606;BME280;46498;49.968;7.754;2023-12-04T18:46:07;-18183.00;;;-2.97;100.00
28606;BME280;46498;49.968;7.754;2023-12-04T18:51:09;-18185.00;;;-2.91;100.00
28606;BME280;46498;49.968;7.754;2023-12-04T18:56:10;-18188.00;;;-2.80;100.00
28606;BME280;46498;49.968;7.754;2023-12-04T19:01:11;-18190.00;;;-2.74;100.00
28606;BME280;46498;49.968;7.754;2023-12-04T19:06:12;-18190.00;;;-2.73;100.00
28606;BME280;46498;49.968;7.754;2023-12-04T19:11:13;-18197.00;;;-2.50;100.00
28606;BME280;46498;49.968;7.754;2023-12-04T19:16:14;-18191.00;;;-2.69;100.00
28606;BME280;46498;49.968;7.754;2023-12-04T19:21:15;-18192.00;;;-2.68;100.00
28606;BME280;46498;49.968;7.754;2023-12-04T19:26:16;-18192.00;;;-2.66;100.00
28606;BME280;46498;49.968;7.754;2023-12-04T19:31:17;-18194.00;;;-2.62;100.00
28606;BME280;46498;49.968;7.754;2023-12-04T19:36:18;-18193.00;;;-2.63;100.00
28606;BME280;46498;49.968;7.754;2023-12-04T19:41:28;-18197.00;;;-2.52;100.00
28606;BME280;46498;49.968;7.754;2023-12-04T19:46:30;-18198.00;;;-2.48;100.00
28606;BME280;46498;49.968;7.754;2023-12-04T19:51:31;-18199.00;;;-2.46;100.00
28606;BME280;46498;49.968;7.754;2023-12-04T19:56:32;-18199.00;;;-2.46;100.00
28606;BME280;46498;49.968;7.754;2023-12-04T20:01:33;-18202.00;;;-2.36;100.00
28606;BME280;46498;49.968;7.754;2023-12-04T20:06:34;-18201.00;;;-2.40;100.00
28606;BME280;46498;49.968;7.754;2023-12-04T20:11:35;-18203.00;;;-2.31;100.00
28606;BME280;46498;49.968;7.754;2023-12-04T20:16:36;-18204.00;;;-2.31;100.00
28606;BME280;46498;49.968;7.754;2023-12-04T20:21:36;-18207.00;;;-2.20;100.00
28606;BME280;46498;49.968;7.754;2023-12-04T20:26:37;-18208.00;;;-2.17;100.00
28606;BME280;46498;49.968;7.754;2023-12-04T20:31:38;-18208.00;;;-2.18;100.00
28606;BME280;46498;49.968;7.754;2023-12-04T20:36:39;-18209.00;;;-2.15;100.00
28606;BME280;46498;49.968;7.754;2023-12-04T20:41:40;-18211.00;;;-2.07;100.00
28606;BME280;46498;49.968;7.754;2023-12-04T20:46:41;-18214.00;;;-1.99;100.00
28606;BME280;46498;49.968;7.754;2023-12-04T20:51:43;-18214.00;;;-1.98;100.00
28606;BME280;46498;49.968;7.754;2023-12-04T20:56:44;-18217.00;;;-1.89;100.00
28606;BME280;46498;49.968;7.754;2023-12-04T21:01:48;-18216.00;;;-1.91;100.00
28606;BME280;46498;49.968;7.754;2023-12-04T21:06:49;-18218.00;;;-1.87;100.00
28606;BME280;46498;49.968;7.754;2023-12-04T21:11:50;-18218.00;;;-1.85;100.00
28606;BME280;46498;49.968;7.754;2023-12-04T21:16:51;-18219.00;;;-1.83;100.00
28606;BME280;46498;49.968;7.754;2023-12-04T21:22:01;-18221.00;;;-1.76;100.00
28606;BME280;46498;49.968;7.754;2023-12-04T21:27:02;-18219.00;;;-1.82;100.00
28606;BME280;46498;49.968;7.754;2023-12-04T21:32:04;-18220.00;;;-1.80;100.00
28606;BME280;46498;49.968;7.754;2023-12-04T21:37:06;-18218.00;;;-1.85;100.00
28606;BME280;46498;49.968;7.754;2023-12-04T21:42:07;-18221.00;;;-1.75;100.00
28606;BME280;46498;49.968;7.754;2023-12-04T21:47:08;-18221.00;;;-1.77;100.00
28606;BME280;46498;49.968;7.754;2023-12-04T21:52:09;-18225.00;;;-1.65;100.00
28606;BME280;46498;49.968;7.754;2023-12-04T21:57:10;-18222.00;;;-1.73;100.00
28606;BME280;46498;49.968;7.754;2023-12-04T22:02:11;-18225.00;;;-1.65;100.00
28606;BME280;46498;49.968;7.754;2023-12-04T22:07:12;-18223.00;;;-1.69;100.00
28606;BME280;46498;49.968;7.754;2023-12-04T22:12:13;-18224.00;;;-1.68;100.00
28606;BME280;46498;49.968;7.754;2023-12-04T22:17:14;-18223.00;;;-1.69;100.00
28606;BME280;46498;49.968;7.754;2023-12-04T22:22:15;-18224.00;;;-1.68;100.00
28606;BME280;46498;49.968;7.754;2023-12-04T22:27:16;-18224.00;;;-1.66;100.00
28606;BME280;46498;49.968;7.754;2023-12-04T22:32:17;-18225.00;;;-1.64;100.00
28606;BME280;46498;49.968;7.754;2023-12-04T22:37:18;-18231.00;;;-1.46;100.00
28606;BME280;46498;49.968;7.754;2023-12-04T22:42:20;-18226.00;;;-1.61;100.00
28606;BME280;46498;49.968;7.754;2023-12-04T22:47:20;-18229.00;;;-1.50;100.00
28606;BME280;46498;49.968;7.754;2023-12-04T22:52:21;-18231.00;;;-1.44;100.00
28606;BME280;46498;49.968;7.754;2023-12-04T22:57:22;-18227.00;;;-1.57;100.00
28606;BME280;46498;49.968;7.754;2023-12-04T23:02:23;-18229.00;;;-1.51;100.00
28606;BME280;46498;49.968;7.754;2023-12-04T23:07:25;-18231.00;;;-1.45;100.00
28606;BME280;46498;49.968;7.754;2023-12-04T23:12:26;-18229.00;;;-1.50;100.00
28606;BME280;46498;49.968;7.754;2023-12-04T23:17:27;-18232.00;;;-1.42;100.00
28606;BME280;46498;49.968;7.754;2023-12-04T23:22:27;-18230.00;;;-1.47;100.00
28606;BME280;46498;49.968;7.754;2023-12-04T23:27:28;-18230.00;;;-1.48;100.00
28606;BME280;46498;49.968;7.754;2023-12-04T23:32:38;-18229.00;;;-1.51;100.00
28606;BME280;46498;49.968;7.754;2023-12-04T23:37:39;-18228.00;;;-1.54;100.00
28606;BME280;46498;49.968;7.754;2023-12-04T23:42:40;-18229.00;;;-1.50;100.00
28606;BME280;46498;49.968;7.754;2023-12-04T23:47:41;-18230.00;;;-1.49;100.00
28606;BME280;46498;49.968;7.754;2023-12-04T23:52:42;-18233.00;;;-1.38;100.00
28606;BME280;46498;49.968;7.754;2023-12-04T23:57:43;-18231.00;;;-1.46;100.00
